sensor_id;sensor_type;location;lat;lon;timestamp;pressure;altitude;pressure_sealevel;temperature;humidity
65534;BME280;53640;55.838;37.184;2023-03-16T00:02:16;98695.50;;;2.00;52.82
65534;BME280;53640;55.838;37.184;2023-03-16T00:04:42;98708.78;;;2.08;53.03
65534;BME280;53640;55.838;37.184;2023-03-16T00:07:13;98753.44;;;2.37;52.96
65534;BME280;53640;55.838;37.184;2023-03-16T00:09:40;98741.63;;;2.32;53.52
65534;BME280;53640;55.838;37.184;2023-03-16T00:12:12;98727.66;;;2.21;53.64
65534;BME280;53640;55.838;37.184;2023-03-16T00:14:42;98749.16;;;2.28;54.11
65534;BME280;53640;55.838;37.184;2023-03-16T00:17:14;98739.28;;;2.28;53.74
65534;BME280;53640;55.838;37.184;2023-03-16T00:19:51;98732.59;;;2.33;53.97
65534;BME280;53640;55.838;37.184;2023-03-16T00:22:27;98658.09;;;1.85;54.07
65534;BME280;53640;55.838;37.184;2023-03-16T00:24:56;98698.84;;;2.17;53.63
65534;BME280;53640;55.838;37.184;2023-03-16T00:27:24;98708.47;;;2.26;53.99
65534;BME280;53640;55.838;37.184;2023-03-16T00:29:52;98730.69;;;2.41;53.55
65534;BME280;53640;55.838;37.184;2023-03-16T00:32:29;98739.34;;;2.43;54.00
65534;BME280;53640;55.838;37.184;2023-03-16T00:35:00;98738.31;;;2.44;54.10
65534;BME280;53640;55.838;37.184;2023-03-16T00:37:30;98721.91;;;2.33;53.69
65534;BME280;53640;55.838;37.184;2023-03-16T00:39:59;98693.97;;;2.20;53.77
65534;BME280;53640;55.838;37.184;2023-03-16T00:42:27;98701.91;;;2.28;53.92
65534;BME280;53640;55.838;37.184;2023-03-16T00:44:56;98699.44;;;2.27;53.79
65534;BME280;53640;55.838;37.184;2023-03-16T00:47:24;98735.13;;;2.49;53.92
65534;BME280;53640;55.838;37.184;2023-03-16T00:49:51;98690.13;;;2.23;53.59
65534;BME280;53640;55.838;37.184;2023-03-16T00:52:18;98698.13;;;2.23;54.07
65534;BME280;53640;55.838;37.184;2023-03-16T00:54:45;98698.97;;;2.23;53.63
65534;BME280;53640;55.838;37.184;2023-03-16T00:57:15;98718.63;;;2.45;53.80
65534;BME280;53640;55.838;37.184;2023-03-16T00:59:44;98716.13;;;2.44;54.01
65534;BME280;53640;55.838;37.184;2023-03-16T01:02:11;98719.63;;;2.44;53.75
65534;BME280;53640;55.838;37.184;2023-03-16T01:04:40;98734.75;;;2.52;54.18
65534;BME280;53640;55.838;37.184;2023-03-16T01:07:09;98727.13;;;2.49;54.24
65534;BME280;53640;55.838;37.184;2023-03-16T01:09:36;98690.28;;;2.21;54.54
65534;BME280;53640;55.838;37.184;2023-03-16T01:12:07;98682.63;;;2.18;54.21
65534;BME280;53640;55.838;37.184;2023-03-16T01:14:35;98739.47;;;2.50;54.29
65534;BME280;53640;55.838;37.184;2023-03-16T01:17:04;98718.88;;;2.36;54.58
65534;BME280;53640;55.838;37.184;2023-03-16T01:19:34;98698.41;;;2.28;54.35
65534;BME280;53640;55.838;37.184;2023-03-16T01:22:04;98730.50;;;2.43;54.20
65534;BME280;53640;55.838;37.184;2023-03-16T01:24:32;98725.03;;;2.36;54.08
65534;BME280;53640;55.838;37.184;2023-03-16T01:27:00;98707.66;;;2.40;54.17
65534;BME280;53640;55.838;37.184;2023-03-16T01:29:27;98705.06;;;2.32;54.55
65534;BME280;53640;55.838;37.184;2023-03-16T01:31:57;98717.47;;;2.25;54.42
65534;BME280;53640;55.838;37.184;2023-03-16T01:34:24;98740.16;;;2.44;54.75
65534;BME280;53640;55.838;37.184;2023-03-16T01:36:51;98694.88;;;2.13;54.25
65534;BME280;53640;55.838;37.184;2023-03-16T01:39:28;98702.34;;;2.17;54.80
65534;BME280;53640;55.838;37.184;2023-03-16T01:41:55;98700.88;;;2.15;54.86
65534;BME280;53640;55.838;37.184;2023-03-16T01:44:24;98744.56;;;2.37;55.02
65534;BME280;53640;55.838;37.184;2023-03-16T01:46:57;98747.06;;;2.38;54.95
65534;BME280;53640;55.838;37.184;2023-03-16T01:49:30;98713.22;;;2.16;54.88
65534;BME280;53640;55.838;37.184;2023-03-16T01:52:09;98699.13;;;2.07;54.73
65534;BME280;53640;55.838;37.184;2023-03-16T01:54:51;98741.81;;;2.30;55.22
65534;BME280;53640;55.838;37.184;2023-03-16T01:57:31;98744.63;;;2.28;55.20
65534;BME280;53640;55.838;37.184;2023-03-16T02:00:05;98742.31;;;2.25;55.01
65534;BME280;53640;55.838;37.184;2023-03-16T02:02:48;98741.03;;;2.21;55.31
65534;BME280;53640;55.838;37.184;2023-03-16T02:05:47;98694.34;;;1.94;55.23
65534;BME280;53640;55.838;37.184;2023-03-16T02:08:16;98739.56;;;2.19;55.43
65534;BME280;53640;55.838;37.184;2023-03-16T02:10:45;98743.88;;;2.20;55.69
65534;BME280;53640;55.838;37.184;2023-03-16T02:13:12;98688.25;;;1.86;55.56
65534;BME280;53640;55.838;37.184;2023-03-16T02:15:38;98744.25;;;2.17;55.62
65534;BME280;53640;55.838;37.184;2023-03-16T02:18:06;98678.47;;;1.78;55.90
65534;BME280;53640;55.838;37.184;2023-03-16T02:20:55;98738.72;;;2.18;55.62
65534;BME280;53640;55.838;37.184;2023-03-16T02:23:24;98707.81;;;2.01;55.84
65534;BME280;53640;55.838;37.184;2023-03-16T02:26:14;98746.38;;;2.21;55.82
65534;BME280;53640;55.838;37.184;2023-03-16T02:29:12;98747.72;;;2.17;56.02
65534;BME280;53640;55.838;37.184;2023-03-16T02:31:40;98734.63;;;2.08;55.99
65534;BME280;53640;55.838;37.184;2023-03-16T02:34:08;98752.25;;;2.17;55.65
65534;BME280;53640;55.838;37.184;2023-03-16T02:36:36;98704.56;;;1.91;55.80
65534;BME280;53640;55.838;37.184;2023-03-16T02:39:04;98721.81;;;2.03;56.12
65534;BME280;53640;55.838;37.184;2023-03-16T02:41:39;98743.69;;;2.21;55.71
65534;BME280;53640;55.838;37.184;2023-03-16T02:44:11;98747.38;;;2.20;56.40
65534;BME280;53640;55.838;37.184;2023-03-16T02:46:42;98749.03;;;2.21;56.32
65534;BME280;53640;55.838;37.184;2023-03-16T02:49:31;98738.63;;;2.12;56.23
65534;BME280;53640;55.838;37.184;2023-03-16T02:52:00;98741.75;;;2.15;56.32
65534;BME280;53640;55.838;37.184;2023-03-16T02:54:30;98714.81;;;2.02;56.51
65534;BME280;53640;55.838;37.184;2023-03-16T02:56:56;98700.84;;;2.00;56.36
65534;BME280;53640;55.838;37.184;2023-03-16T02:59:24;98747.66;;;2.25;56.48
65534;BME280;53640;55.838;37.184;2023-03-16T03:01:51;98739.19;;;2.22;56.16
65534;BME280;53640;55.838;37.184;2023-03-16T03:04:18;98728.69;;;2.20;56.45
65534;BME280;53640;55.838;37.184;2023-03-16T03:06:48;98734.56;;;2.16;56.37
65534;BME280;53640;55.838;37.184;2023-03-16T03:09:14;98705.63;;;2.04;56.37
65534;BME280;53640;55.838;37.184;2023-03-16T03:11:42;98688.13;;;2.02;56.41
65534;BME280;53640;55.838;37.184;2023-03-16T03:14:08;98683.53;;;1.96;56.58
65534;BME280;53640;55.838;37.184;2023-03-16T03:16:37;98725.81;;;2.22;56.33
65534;BME280;53640;55.838;37.184;2023-03-16T03:19:03;98676.69;;;1.93;56.39
65534;BME280;53640;55.838;37.184;2023-03-16T03:21:34;98721.03;;;2.17;56.27
65534;BME280;53640;55.838;37.184;2023-03-16T03:24:01;98702.78;;;2.06;56.60
65534;BME280;53640;55.838;37.184;2023-03-16T03:26:27;98709.41;;;2.10;56.51
65534;BME280;53640;55.838;37.184;2023-03-16T03:28:58;98715.06;;;2.15;56.36
65534;BME280;53640;55.838;37.184;2023-03-16T03:31:24;98680.00;;;1.95;56.56
65534;BME280;53640;55.838;37.184;2023-03-16T03:33:52;98698.38;;;2.13;56.66
65534;BME280;53640;55.838;37.184;2023-03-16T03:36:21;98711.84;;;2.20;56.75
65534;BME280;53640;55.838;37.184;2023-03-16T03:38:48;98686.28;;;2.02;56.40
65534;BME280;53640;55.838;37.184;2023-03-16T03:41:20;98701.16;;;2.20;56.87
65534;BME280;53640;55.838;37.184;2023-03-16T03:43:48;98708.63;;;2.24;56.68
65534;BME280;53640;55.838;37.184;2023-03-16T03:46:17;98700.25;;;2.27;56.59
65534;BME280;53640;55.838;37.184;2023-03-16T03:48:43;98708.75;;;2.31;56.70
65534;BME280;53640;55.838;37.184;2023-03-16T03:51:10;98651.94;;;1.99;56.60
65534;BME280;53640;55.838;37.184;2023-03-16T03:53:43;98692.72;;;2.31;56.73
65534;BME280;53640;55.838;37.184;2023-03-16T03:56:17;98654.25;;;2.02;57.04
65534;BME280;53640;55.838;37.184;2023-03-16T03:58:43;98713.53;;;2.36;56.52
65534;BME280;53640;55.838;37.184;2023-03-16T04:01:12;98709.38;;;2.33;56.34
65534;BME280;53640;55.838;37.184;2023-03-16T04:03:39;98681.47;;;2.21;56.63
65534;BME280;53640;55.838;37.184;2023-03-16T04:06:07;98682.34;;;2.13;56.45
65534;BME280;53640;55.838;37.184;2023-03-16T04:08:35;98698.69;;;2.33;56.67
65534;BME280;53640;55.838;37.184;2023-03-16T04:11:03;98706.19;;;2.38;56.28
65534;BME280;53640;55.838;37.184;2023-03-16T04:13:31;98704.91;;;2.34;56.36
65534;BME280;53640;55.838;37.184;2023-03-16T04:15:59;98700.66;;;2.39;56.86
65534;BME280;53640;55.838;37.184;2023-03-16T04:18:31;98694.00;;;2.35;56.51
65534;BME280;53640;55.838;37.184;2023-03-16T04:21:05;98646.34;;;2.09;56.58
65534;BME280;53640;55.838;37.184;2023-03-16T04:23:32;98699.28;;;2.43;56.42
65534;BME280;53640;55.838;37.184;2023-03-16T04:26:00;98654.84;;;2.13;56.34
65534;BME280;53640;55.838;37.184;2023-03-16T04:28:27;98674.09;;;2.23;56.27
65534;BME280;53640;55.838;37.184;2023-03-16T04:30:53;98710.16;;;2.42;56.66
65534;BME280;53640;55.838;37.184;2023-03-16T04:33:37;98703.41;;;2.31;56.39
65534;BME280;53640;55.838;37.184;2023-03-16T04:36:05;98720.53;;;2.37;56.71
65534;BME280;53640;55.838;37.184;2023-03-16T04:38:33;98693.50;;;2.17;56.46
65534;BME280;53640;55.838;37.184;2023-03-16T04:41:02;98715.94;;;2.30;56.45
65534;BME280;53640;55.838;37.184;2023-03-16T04:43:33;98713.03;;;2.17;57.08
65534;BME280;53640;55.838;37.184;2023-03-16T04:46:05;98734.50;;;2.24;56.62
65534;BME280;53640;55.838;37.184;2023-03-16T04:48:34;98738.06;;;2.16;56.74
65534;BME280;53640;55.838;37.184;2023-03-16T04:51:03;98734.84;;;2.21;56.88
65534;BME280;53640;55.838;37.184;2023-03-16T04:53:33;98753.31;;;2.30;56.83
65534;BME280;53640;55.838;37.184;2023-03-16T04:56:06;98754.97;;;2.32;56.83
65534;BME280;53640;55.838;37.184;2023-03-16T04:58:33;98698.88;;;1.94;56.71
65534;BME280;53640;55.838;37.184;2023-03-16T05:01:01;98715.75;;;2.09;56.95
65534;BME280;53640;55.838;37.184;2023-03-16T05:03:30;98717.72;;;2.15;57.22
65534;BME280;53640;55.838;37.184;2023-03-16T05:05:57;98685.72;;;1.92;56.87
65534;BME280;53640;55.838;37.184;2023-03-16T05:08:26;98698.41;;;1.90;56.92
65534;BME280;53640;55.838;37.184;2023-03-16T05:10:57;98766.53;;;2.24;57.33
65534;BME280;53640;55.838;37.184;2023-03-16T05:13:26;98749.56;;;2.17;57.45
65534;BME280;53640;55.838;37.184;2023-03-16T05:15:54;98743.75;;;2.13;57.35
65534;BME280;53640;55.838;37.184;2023-03-16T05:18:29;98750.25;;;2.19;57.29
65534;BME280;53640;55.838;37.184;2023-03-16T05:20:55;98755.59;;;2.19;57.84
65534;BME280;53640;55.838;37.184;2023-03-16T05:23:24;98705.94;;;1.87;57.61
65534;BME280;53640;55.838;37.184;2023-03-16T05:25:56;98755.47;;;2.12;57.86
65534;BME280;53640;55.838;37.184;2023-03-16T05:28:27;98646.22;;;1.42;58.33
65534;BME280;53640;55.838;37.184;2023-03-16T05:31:00;98724.59;;;1.87;58.00
65534;BME280;53640;55.838;37.184;2023-03-16T05:33:34;98750.00;;;2.05;58.13
65534;BME280;53640;55.838;37.184;2023-03-16T05:36:07;98698.34;;;1.75;58.24
65534;BME280;53640;55.838;37.184;2023-03-16T05:38:36;98766.25;;;2.19;58.10
65534;BME280;53640;55.838;37.184;2023-03-16T05:41:06;98754.16;;;2.08;58.06
65534;BME280;53640;55.838;37.184;2023-03-16T05:44:02;98784.09;;;2.18;58.10
65534;BME280;53640;55.838;37.184;2023-03-16T05:46:39;98695.38;;;1.70;58.33
65534;BME280;53640;55.838;37.184;2023-03-16T05:49:10;98757.47;;;2.10;58.48
65534;BME280;53640;55.838;37.184;2023-03-16T05:51:38;98761.63;;;2.13;58.58
65534;BME280;53640;55.838;37.184;2023-03-16T05:54:06;98726.25;;;1.88;58.45
65534;BME280;53640;55.838;37.184;2023-03-16T05:56:43;98716.47;;;1.80;58.49
65534;BME280;53640;55.838;37.184;2023-03-16T05:59:10;98734.38;;;1.94;58.86
65534;BME280;53640;55.838;37.184;2023-03-16T06:01:39;98773.94;;;2.14;59.19
65534;BME280;53640;55.838;37.184;2023-03-16T06:04:05;98715.50;;;1.73;58.70
65534;BME280;53640;55.838;37.184;2023-03-16T06:06:35;98761.50;;;2.06;58.97
65534;BME280;53640;55.838;37.184;2023-03-16T06:09:09;98775.25;;;2.18;58.79
65534;BME280;53640;55.838;37.184;2023-03-16T06:11:35;98766.50;;;2.09;58.90
65534;BME280;53640;55.838;37.184;2023-03-16T06:14:02;98764.09;;;2.14;59.02
65534;BME280;53640;55.838;37.184;2023-03-16T06:16:28;98767.91;;;2.20;59.47
65534;BME280;53640;55.838;37.184;2023-03-16T06:18:55;98754.63;;;2.12;59.09
65534;BME280;53640;55.838;37.184;2023-03-16T06:21:22;98740.69;;;2.01;59.22
65534;BME280;53640;55.838;37.184;2023-03-16T06:23:51;98728.03;;;1.95;58.77
65534;BME280;53640;55.838;37.184;2023-03-16T06:26:19;98771.41;;;2.20;58.93
65534;BME280;53640;55.838;37.184;2023-03-16T06:28:48;98743.34;;;2.01;59.13
65534;BME280;53640;55.838;37.184;2023-03-16T06:31:15;98786.06;;;2.24;59.27
65534;BME280;53640;55.838;37.184;2023-03-16T06:33:44;98707.81;;;1.78;59.30
65534;BME280;53640;55.838;37.184;2023-03-16T06:36:10;98766.72;;;1.99;59.23
65534;BME280;53640;55.838;37.184;2023-03-16T06:38:43;98743.47;;;1.85;59.44
65534;BME280;53640;55.838;37.184;2023-03-16T06:41:39;98790.50;;;2.09;59.57
65534;BME280;53640;55.838;37.184;2023-03-16T06:44:44;98797.44;;;2.18;59.69
65534;BME280;53640;55.838;37.184;2023-03-16T06:48:40;98668.59;;;1.32;59.37
65534;BME280;53640;55.838;37.184;2023-03-16T06:52:21;98812.16;;;2.14;59.51
65534;BME280;53640;55.838;37.184;2023-03-16T06:55:31;98734.28;;;1.56;59.84
65534;BME280;53640;55.838;37.184;2023-03-16T06:58:15;98737.97;;;1.55;59.92
65534;BME280;53640;55.838;37.184;2023-03-16T07:00:44;98769.69;;;1.81;60.23
65534;BME280;53640;55.838;37.184;2023-03-16T07:03:10;98773.66;;;1.86;60.28
65534;BME280;53640;55.838;37.184;2023-03-16T07:05:46;98782.47;;;1.86;60.19
65534;BME280;53640;55.838;37.184;2023-03-16T07:08:12;98786.94;;;1.94;60.48
65534;BME280;53640;55.838;37.184;2023-03-16T07:10:40;98803.56;;;2.04;60.50
65534;BME280;53640;55.838;37.184;2023-03-16T07:13:09;98802.69;;;2.12;60.61
65534;BME280;53640;55.838;37.184;2023-03-16T07:15:35;98814.66;;;2.16;60.46
65534;BME280;53640;55.838;37.184;2023-03-16T07:18:02;98799.47;;;2.16;60.76
65534;BME280;53640;55.838;37.184;2023-03-16T07:20:29;98802.16;;;2.16;60.45
65534;BME280;53640;55.838;37.184;2023-03-16T07:23:00;98757.59;;;1.94;60.75
65534;BME280;53640;55.838;37.184;2023-03-16T07:25:26;98766.69;;;2.08;60.60
65534;BME280;53640;55.838;37.184;2023-03-16T07:27:54;98758.19;;;2.04;60.55
65534;BME280;53640;55.838;37.184;2023-03-16T07:30:27;98719.97;;;1.80;60.35
65534;BME280;53640;55.838;37.184;2023-03-16T07:32:56;98759.84;;;2.05;60.45
65534;BME280;53640;55.838;37.184;2023-03-16T07:35:25;98672.31;;;1.54;60.28
65534;BME280;53640;55.838;37.184;2023-03-16T07:37:52;98690.03;;;1.70;60.51
65534;BME280;53640;55.838;37.184;2023-03-16T07:40:20;98692.34;;;1.73;60.50
65534;BME280;53640;55.838;37.184;2023-03-16T07:42:48;98745.13;;;2.09;60.47
65534;BME280;53640;55.838;37.184;2023-03-16T07:45:27;98709.47;;;2.02;60.76
65534;BME280;53640;55.838;37.184;2023-03-16T07:47:54;98723.06;;;2.15;60.73
65534;BME280;53640;55.838;37.184;2023-03-16T07:50:35;98704.81;;;2.04;60.39
65534;BME280;53640;55.838;37.184;2023-03-16T07:53:02;98744.63;;;2.28;60.62
65534;BME280;53640;55.838;37.184;2023-03-16T07:55:30;98794.09;;;2.62;60.73
65534;BME280;53640;55.838;37.184;2023-03-16T07:57:58;98765.03;;;2.44;60.54
65534;BME280;53640;55.838;37.184;2023-03-16T08:00:31;98774.81;;;2.52;60.47
65534;BME280;53640;55.838;37.184;2023-03-16T08:02:58;98770.84;;;2.48;60.38
65534;BME280;53640;55.838;37.184;2023-03-16T08:05:29;98776.19;;;2.48;60.28
65534;BME280;53640;55.838;37.184;2023-03-16T08:08:00;98802.47;;;2.59;60.19
65534;BME280;53640;55.838;37.184;2023-03-16T08:10:51;98745.00;;;2.25;60.20
65534;BME280;53640;55.838;37.184;2023-03-16T08:13:51;98809.78;;;2.65;60.52
65534;BME280;53640;55.838;37.184;2023-03-16T08:17:31;98652.84;;;1.69;60.42
65534;BME280;53640;55.838;37.184;2023-03-16T08:20:17;98678.97;;;1.81;60.38
65534;BME280;53640;55.838;37.184;2023-03-16T08:23:13;98662.34;;;1.71;60.41
65534;BME280;53640;55.838;37.184;2023-03-16T08:25:45;98744.28;;;2.32;60.71
65534;BME280;53640;55.838;37.184;2023-03-16T08:28:16;98784.69;;;2.51;60.58
65534;BME280;53640;55.838;37.184;2023-03-16T08:30:53;98662.22;;;1.88;60.34
65534;BME280;53640;55.838;37.184;2023-03-16T08:34:02;98745.94;;;2.33;60.56
65534;BME280;53640;55.838;37.184;2023-03-16T08:36:35;98803.72;;;2.71;60.66
65534;BME280;53640;55.838;37.184;2023-03-16T08:39:49;98746.13;;;2.31;60.21
65534;BME280;53640;55.838;37.184;2023-03-16T08:43:15;98681.28;;;1.85;60.33
65534;BME280;53640;55.838;37.184;2023-03-16T08:45:48;98670.94;;;1.81;60.15
65534;BME280;53640;55.838;37.184;2023-03-16T08:49:03;98737.16;;;2.24;60.19
65534;BME280;53640;55.838;37.184;2023-03-16T08:51:40;98730.69;;;2.18;60.48
65534;BME280;53640;55.838;37.184;2023-03-16T08:54:19;98681.28;;;1.99;60.39
65534;BME280;53640;55.838;37.184;2023-03-16T08:57:19;98652.28;;;1.81;60.65
65534;BME280;53640;55.838;37.184;2023-03-16T09:00:07;98727.25;;;2.33;60.38
65534;BME280;53640;55.838;37.184;2023-03-16T09:02:43;98765.06;;;2.59;60.63
65534;BME280;53640;55.838;37.184;2023-03-16T09:05:17;98745.34;;;2.45;60.35
65534;BME280;53640;55.838;37.184;2023-03-16T09:07:48;98715.34;;;2.20;60.30
65534;BME280;53640;55.838;37.184;2023-03-16T09:10:15;98658.84;;;1.94;60.05
65534;BME280;53640;55.838;37.184;2023-03-16T09:12:48;98668.13;;;1.98;60.28
65534;BME280;53640;55.838;37.184;2023-03-16T09:15:19;98733.63;;;2.46;60.14
65534;BME280;53640;55.838;37.184;2023-03-16T09:17:55;98770.63;;;2.72;60.59
65534;BME280;53640;55.838;37.184;2023-03-16T09:20:30;98697.97;;;2.39;60.35
65534;BME280;53640;55.838;37.184;2023-03-16T09:23:01;98656.03;;;2.10;60.18
65534;BME280;53640;55.838;37.184;2023-03-16T09:25:48;98732.97;;;2.67;60.33
65534;BME280;53640;55.838;37.184;2023-03-16T09:28:20;98638.72;;;2.06;59.84
65534;BME280;53640;55.838;37.184;2023-03-16T09:31:01;98700.47;;;2.41;59.93
65534;BME280;53640;55.838;37.184;2023-03-16T09:33:49;98713.38;;;2.52;60.12
65534;BME280;53640;55.838;37.184;2023-03-16T09:36:51;98771.66;;;2.71;60.07
65534;BME280;53640;55.838;37.184;2023-03-16T09:40:30;98658.13;;;2.00;59.78
65534;BME280;53640;55.838;37.184;2023-03-16T09:43:59;98816.28;;;3.00;59.91
65534;BME280;53640;55.838;37.184;2023-03-16T09:46:42;98715.19;;;2.37;59.60
65534;BME280;53640;55.838;37.184;2023-03-16T09:49:15;98773.09;;;2.59;59.48
65534;BME280;53640;55.838;37.184;2023-03-16T09:55:44;98690.78;;;2.02;59.43
65534;BME280;53640;55.838;37.184;2023-03-16T09:58:18;98655.09;;;1.80;59.84
65534;BME280;53640;55.838;37.184;2023-03-16T10:17:39;98743.69;;;2.21;60.59
65534;BME280;53640;55.838;37.184;2023-03-16T10:20:05;98787.59;;;2.42;60.61
65534;BME280;53640;55.838;37.184;2023-03-16T10:22:41;98738.28;;;2.06;60.38
65534;BME280;53640;55.838;37.184;2023-03-16T10:25:22;98747.91;;;2.16;60.35
65534;BME280;53640;55.838;37.184;2023-03-16T10:27:51;98697.56;;;1.90;60.26
65534;BME280;53640;55.838;37.184;2023-03-16T10:30:24;98739.00;;;2.23;60.44
65534;BME280;53640;55.838;37.184;2023-03-16T10:32:54;98692.72;;;1.93;60.10
65534;BME280;53640;55.838;37.184;2023-03-16T10:38:41;98802.47;;;2.59;60.50
65534;BME280;53640;55.838;37.184;2023-03-16T10:41:20;98830.72;;;2.76;60.78
65534;BME280;53640;55.838;37.184;2023-03-16T10:44:05;98732.13;;;2.06;60.43
65534;BME280;53640;55.838;37.184;2023-03-16T10:49:39;98840.94;;;2.73;60.63
65534;BME280;53640;55.838;37.184;2023-03-16T10:52:32;98842.59;;;2.74;60.84
65534;BME280;53640;55.838;37.184;2023-03-16T10:55:16;98713.50;;;1.98;60.99
65534;BME280;53640;55.838;37.184;2023-03-16T10:57:53;98805.63;;;2.63;61.10
65534;BME280;53640;55.838;37.184;2023-03-16T11:00:26;98735.47;;;2.08;60.88
65534;BME280;53640;55.838;37.184;2023-03-16T11:02:58;98810.50;;;2.59;60.91
65534;BME280;53640;55.838;37.184;2023-03-16T11:05:32;98830.72;;;2.76;60.88
65534;BME280;53640;55.838;37.184;2023-03-16T11:08:13;98771.28;;;2.37;60.58
65534;BME280;53640;55.838;37.184;2023-03-16T11:10:45;98826.41;;;2.75;60.53
65534;BME280;53640;55.838;37.184;2023-03-16T11:13:17;98796.84;;;2.54;60.50
65534;BME280;53640;55.838;37.184;2023-03-16T11:18:54;98824.16;;;2.64;60.41
65534;BME280;53640;55.838;37.184;2023-03-16T11:21:37;98762.28;;;2.15;60.50
65534;BME280;53640;55.838;37.184;2023-03-16T11:24:33;98846.09;;;2.74;60.87
65534;BME280;53640;55.838;37.184;2023-03-16T11:27:10;98691.16;;;1.76;61.29
65534;BME280;53640;55.838;37.184;2023-03-16T11:32:24;98823.91;;;2.51;61.12
65534;BME280;53640;55.838;37.184;2023-03-16T11:34:51;98803.09;;;2.46;61.09
65534;BME280;53640;55.838;37.184;2023-03-16T11:48:41;98798.66;;;2.39;61.26
65534;BME280;53640;55.838;37.184;2023-03-16T11:53:43;98868.81;;;2.78;61.72
65534;BME280;53640;55.838;37.184;2023-03-16T12:05:11;98876.81;;;2.78;61.94
65534;BME280;53640;55.838;37.184;2023-03-16T12:10:44;98877.00;;;2.77;61.71
65534;BME280;53640;55.838;37.184;2023-03-16T12:19:21;98831.41;;;2.33;61.96
65534;BME280;53640;55.838;37.184;2023-03-16T12:22:06;98873.91;;;2.65;62.05
65534;BME280;53640;55.838;37.184;2023-03-16T12:24:40;98840.00;;;2.43;61.85
65534;BME280;53640;55.838;37.184;2023-03-16T12:27:10;98882.22;;;2.70;62.24
65534;BME280;53640;55.838;37.184;2023-03-16T12:29:48;98842.69;;;2.43;62.18
65534;BME280;53640;55.838;37.184;2023-03-16T12:32:48;98787.22;;;1.99;62.15
65534;BME280;53640;55.838;37.184;2023-03-16T12:38:34;98809.63;;;2.21;62.62
65534;BME280;53640;55.838;37.184;2023-03-16T12:41:18;98886.09;;;2.68;62.80
65534;BME280;53640;55.838;37.184;2023-03-16T12:46:52;98874.13;;;2.55;62.66
65534;BME280;53640;55.838;37.184;2023-03-16T12:49:24;98837.06;;;2.38;62.42
65534;BME280;53640;55.838;37.184;2023-03-16T12:52:07;98745.72;;;1.73;62.61
65534;BME280;53640;55.838;37.184;2023-03-16T12:54:35;98895.28;;;2.65;62.41
65534;BME280;53640;55.838;37.184;2023-03-16T12:57:06;98869.53;;;2.49;62.59
65534;BME280;53640;55.838;37.184;2023-03-16T12:59:39;98897.19;;;2.57;62.89
65534;BME280;53640;55.838;37.184;2023-03-16T13:02:16;98860.25;;;2.37;62.62
65534;BME280;53640;55.838;37.184;2023-03-16T13:04:45;98892.81;;;2.64;62.81
65534;BME280;53640;55.838;37.184;2023-03-16T13:07:19;98787.91;;;2.01;62.63
65534;BME280;53640;55.838;37.184;2023-03-16T13:09:57;98787.91;;;2.01;62.97
65534;BME280;53640;55.838;37.184;2023-03-16T13:12:46;98918.38;;;2.81;63.04
65534;BME280;53640;55.838;37.184;2023-03-16T13:18:34;98817.00;;;2.19;62.69
65534;BME280;53640;55.838;37.184;2023-03-16T13:20:53;98891.94;;;2.63;62.89
65534;BME280;53640;55.838;37.184;2023-03-16T13:23:23;98907.94;;;2.71;62.62
65534;BME280;53640;55.838;37.184;2023-03-16T13:26:04;98911.56;;;2.78;62.58
65534;BME280;53640;55.838;37.184;2023-03-16T13:28:35;98760.94;;;1.88;62.87
65534;BME280;53640;55.838;37.184;2023-03-16T13:31:22;98864.00;;;2.51;62.95
65534;BME280;53640;55.838;37.184;2023-03-16T13:33:55;98803.03;;;2.09;62.60
65534;BME280;53640;55.838;37.184;2023-03-16T13:36:29;98850.34;;;2.46;62.80
65534;BME280;53640;55.838;37.184;2023-03-16T13:39:15;98907.53;;;2.83;62.98
65534;BME280;53640;55.838;37.184;2023-03-16T13:42:14;98876.47;;;2.59;62.70
65534;BME280;53640;55.838;37.184;2023-03-16T13:44:42;98849.69;;;2.44;62.51
65534;BME280;53640;55.838;37.184;2023-03-16T13:47:21;98805.28;;;2.20;62.26
65534;BME280;53640;55.838;37.184;2023-03-16T13:49:58;98769.75;;;1.96;62.82
65534;BME280;53640;55.838;37.184;2023-03-16T13:55:28;98784.53;;;2.07;62.69
65534;BME280;53640;55.838;37.184;2023-03-16T13:57:56;98772.53;;;2.03;62.49
65534;BME280;53640;55.838;37.184;2023-03-16T14:03:20;98749.50;;;1.79;62.44
65534;BME280;53640;55.838;37.184;2023-03-16T14:05:47;98894.63;;;2.63;62.80
65534;BME280;53640;55.838;37.184;2023-03-16T14:08:22;98842.28;;;2.31;62.75
65534;BME280;53640;55.838;37.184;2023-03-16T14:10:50;98822.84;;;2.14;62.65
65534;BME280;53640;55.838;37.184;2023-03-16T14:13:29;98852.47;;;2.27;63.01
65534;BME280;53640;55.838;37.184;2023-03-16T14:16:06;98909.31;;;2.67;63.05
65534;BME280;53640;55.838;37.184;2023-03-16T14:18:42;98914.94;;;2.72;63.04
65534;BME280;53640;55.838;37.184;2023-03-16T14:21:21;98854.31;;;2.27;62.43
65534;BME280;53640;55.838;37.184;2023-03-16T14:23:59;98880.75;;;2.45;62.64
65534;BME280;53640;55.838;37.184;2023-03-16T14:26:50;98910.16;;;2.60;62.61
65534;BME280;53640;55.838;37.184;2023-03-16T14:29:27;98843.13;;;2.00;62.81
65534;BME280;53640;55.838;37.184;2023-03-16T14:31:56;98826.00;;;1.87;62.80
65534;BME280;53640;55.838;37.184;2023-03-16T14:34:37;98832.13;;;1.95;62.63
65534;BME280;53640;55.838;37.184;2023-03-16T14:39:36;98915.63;;;2.43;62.66
65534;BME280;53640;55.838;37.184;2023-03-16T14:42:04;98900.69;;;2.34;62.87
65534;BME280;53640;55.838;37.184;2023-03-16T14:44:33;98893.16;;;2.29;62.81
65534;BME280;53640;55.838;37.184;2023-03-16T14:47:03;98918.50;;;2.42;62.73
65534;BME280;53640;55.838;37.184;2023-03-16T14:49:37;98858.91;;;2.10;62.44
65534;BME280;53640;55.838;37.184;2023-03-16T14:54:45;98947.41;;;2.61;61.85
65534;BME280;53640;55.838;37.184;2023-03-16T14:57:14;98931.78;;;2.50;62.09
65534;BME280;53640;55.838;37.184;2023-03-16T14:59:41;98923.84;;;2.42;62.07
65534;BME280;53640;55.838;37.184;2023-03-16T15:02:24;98956.44;;;2.60;61.52
65534;BME280;53640;55.838;37.184;2023-03-16T15:04:52;98939.63;;;2.51;61.79